Waskesiu Lake, Canada
Current Conditions -  °F | °C
As of 12:00 AM on Thursday 27 Nov 2014 (Local Time) from CYPA Reporting Station
Light Snow Light Snow  
Wind Chill: -12°   Ceiling: 4500
Heat Index: -2°   Visibility: 10mi
Dew Point: -6°   Wind: 5mph
Humidity: 85%   Direction: 80°E
Pressure: 30.26"   Gusts: NA
Location:  53.92°N, 106.08°W
Report Text: CYPA 270600Z 08004KT 10SM -SN OVC045 M19/M21 A3026 RMK SC8 SLP299
Loading
Personal Weather Stations






























Interactive Weather Map New forecast layout! Learn more

10-Day Weather Forecast

Advertisements
Track Severe Weather on mobile